Terminal Aerodrome Forecast
Issued by NWS Des Moines, IA

Home | Current Version | Previous Version | Text Only | Print | Product List | Glossary On
Versions: 1 2 3 4 5 6 7 8 9 10 11 12 13 14 15 16 17 18 19 20 21 22 23 24 25
000
FTUS43 KDMX 011134
TAFALO
TAF
KALO 011134Z 0112/0212 VRB02KT P6SM SKC
      TEMPO 0112/0113 2SM BR SCT004
     FM011700 26004KT P6SM BKN045=

USA.gov is the U.S. government's official web portal to all federal, state and local government web resources and services.